sensor_id;sensor_type;location;lat;lon;timestamp;temperature;humidity
2907;DHT22;1463;51.070;16.998;2023-11-21T00:01:56;9.30;99.90
2907;DHT22;1463;51.070;16.998;2023-11-21T00:04:22;9.30;99.90
2907;DHT22;1463;51.070;16.998;2023-11-21T00:06:50;9.30;99.90
2907;DHT22;1463;51.070;16.998;2023-11-21T00:09:17;9.30;99.90
2907;DHT22;1463;51.070;16.998;2023-11-21T00:11:44;9.30;99.90
2907;DHT22;1463;51.070;16.998;2023-11-21T00:14:11;9.30;99.90
2907;DHT22;1463;51.070;16.998;2023-11-21T00:16:38;9.30;99.90
2907;DHT22;1463;51.070;16.998;2023-11-21T00:19:08;9.30;99.90
2907;DHT22;1463;51.070;16.998;2023-11-21T00:21:35;9.30;99.90
2907;DHT22;1463;51.070;16.998;2023-11-21T00:24:02;9.20;99.90
2907;DHT22;1463;51.070;16.998;2023-11-21T00:26:29;9.20;99.90
2907;DHT22;1463;51.070;16.998;2023-11-21T00:29:02;9.20;99.90
2907;DHT22;1463;51.070;16.998;2023-11-21T00:31:29;9.20;99.90
2907;DHT22;1463;51.070;16.998;2023-11-21T00:33:56;9.20;99.90
2907;DHT22;1463;51.070;16.998;2023-11-21T00:36:24;9.20;99.90
2907;DHT22;1463;51.070;16.998;2023-11-21T00:38:51;9.20;99.90
2907;DHT22;1463;51.070;16.998;2023-11-21T00:41:18;9.20;99.90
2907;DHT22;1463;51.070;16.998;2023-11-21T00:43:45;9.20;99.90
2907;DHT22;1463;51.070;16.998;2023-11-21T00:46:11;9.20;99.90
2907;DHT22;1463;51.070;16.998;2023-11-21T00:48:41;9.30;99.90
2907;DHT22;1463;51.070;16.998;2023-11-21T00:51:07;9.20;99.90
2907;DHT22;1463;51.070;16.998;2023-11-21T00:53:35;9.20;99.90
2907;DHT22;1463;51.070;16.998;2023-11-21T00:56:02;9.20;99.90
2907;DHT22;1463;51.070;16.998;2023-11-21T00:58:29;9.10;99.90
2907;DHT22;1463;51.070;16.998;2023-11-21T01:00:56;9.10;99.90
2907;DHT22;1463;51.070;16.998;2023-11-21T01:03:23;9.20;99.90
2907;DHT22;1463;51.070;16.998;2023-11-21T01:05:50;9.20;99.90
2907;DHT22;1463;51.070;16.998;2023-11-21T01:08:17;9.20;99.90
2907;DHT22;1463;51.070;16.998;2023-11-21T01:10:45;9.20;99.90
2907;DHT22;1463;51.070;16.998;2023-11-21T01:13:12;9.20;99.90
2907;DHT22;1463;51.070;16.998;2023-11-21T01:15:40;9.20;99.90
2907;DHT22;1463;51.070;16.998;2023-11-21T01:18:07;9.20;99.90
2907;DHT22;1463;51.070;16.998;2023-11-21T01:20:34;9.20;99.90
2907;DHT22;1463;51.070;16.998;2023-11-21T01:23:01;9.20;99.90
2907;DHT22;1463;51.070;16.998;2023-11-21T01:25:28;9.10;99.90
2907;DHT22;1463;51.070;16.998;2023-11-21T01:27:56;9.10;99.90
2907;DHT22;1463;51.070;16.998;2023-11-21T01:30:23;9.20;99.90
2907;DHT22;1463;51.070;16.998;2023-11-21T01:32:51;9.10;99.90
2907;DHT22;1463;51.070;16.998;2023-11-21T01:35:17;9.20;99.90
2907;DHT22;1463;51.070;16.998;2023-11-21T01:37:44;9.20;99.90
2907;DHT22;1463;51.070;16.998;2023-11-21T01:40:11;9.10;99.90
2907;DHT22;1463;51.070;16.998;2023-11-21T01:42:39;9.10;99.90
2907;DHT22;1463;51.070;16.998;2023-11-21T01:45:08;9.20;99.90
2907;DHT22;1463;51.070;16.998;2023-11-21T01:47:36;9.20;99.90
2907;DHT22;1463;51.070;16.998;2023-11-21T01:50:07;9.20;99.90
2907;DHT22;1463;51.070;16.998;2023-11-21T01:52:34;9.20;99.90
2907;DHT22;1463;51.070;16.998;2023-11-21T01:55:04;9.20;99.90
2907;DHT22;1463;51.070;16.998;2023-11-21T01:57:34;9.20;99.90
2907;DHT22;1463;51.070;16.998;2023-11-21T02:00:04;9.20;99.90
2907;DHT22;1463;51.070;16.998;2023-11-21T02:02:42;9.20;99.90
2907;DHT22;1463;51.070;16.998;2023-11-21T02:05:09;9.20;99.90
2907;DHT22;1463;51.070;16.998;2023-11-21T02:07:38;9.20;99.90
2907;DHT22;1463;51.070;16.998;2023-11-21T02:10:06;9.10;99.90
2907;DHT22;1463;51.070;16.998;2023-11-21T02:12:33;9.10;99.90
2907;DHT22;1463;51.070;16.998;2023-11-21T02:15:00;9.10;99.90
2907;DHT22;1463;51.070;16.998;2023-11-21T02:17:27;9.10;99.90
2907;DHT22;1463;51.070;16.998;2023-11-21T02:19:55;9.10;99.90
2907;DHT22;1463;51.070;16.998;2023-11-21T02:22:22;9.20;99.90
2907;DHT22;1463;51.070;16.998;2023-11-21T02:24:53;9.10;99.90
2907;DHT22;1463;51.070;16.998;2023-11-21T02:27:20;9.10;99.90
2907;DHT22;1463;51.070;16.998;2023-11-21T02:29:51;9.10;99.90
2907;DHT22;1463;51.070;16.998;2023-11-21T02:32:18;9.00;99.90
2907;DHT22;1463;51.070;16.998;2023-11-21T02:34:48;9.10;99.90
2907;DHT22;1463;51.070;16.998;2023-11-21T02:37:15;9.10;99.90
2907;DHT22;1463;51.070;16.998;2023-11-21T02:39:42;9.10;99.90
2907;DHT22;1463;51.070;16.998;2023-11-21T02:42:10;9.10;99.90
2907;DHT22;1463;51.070;16.998;2023-11-21T02:44:39;9.10;99.90
2907;DHT22;1463;51.070;16.998;2023-11-21T02:47:06;9.10;99.90
2907;DHT22;1463;51.070;16.998;2023-11-21T02:49:33;9.10;99.90
2907;DHT22;1463;51.070;16.998;2023-11-21T02:52:00;9.10;99.90
2907;DHT22;1463;51.070;16.998;2023-11-21T02:54:27;9.10;99.90
2907;DHT22;1463;51.070;16.998;2023-11-21T02:56:54;9.10;99.90
2907;DHT22;1463;51.070;16.998;2023-11-21T02:59:22;9.10;99.90
2907;DHT22;1463;51.070;16.998;2023-11-21T03:01:49;9.10;99.90
2907;DHT22;1463;51.070;16.998;2023-11-21T03:04:16;9.10;99.90
2907;DHT22;1463;51.070;16.998;2023-11-21T03:06:43;9.10;99.90
2907;DHT22;1463;51.070;16.998;2023-11-21T03:09:13;9.10;99.90
2907;DHT22;1463;51.070;16.998;2023-11-21T03:11:41;9.10;99.90
2907;DHT22;1463;51.070;16.998;2023-11-21T03:14:08;9.10;99.90
2907;DHT22;1463;51.070;16.998;2023-11-21T03:16:37;9.10;99.90
2907;DHT22;1463;51.070;16.998;2023-11-21T03:19:07;9.10;99.90
2907;DHT22;1463;51.070;16.998;2023-11-21T03:21:34;9.10;99.90
2907;DHT22;1463;51.070;16.998;2023-11-21T03:24:03;9.10;99.90
2907;DHT22;1463;51.070;16.998;2023-11-21T03:26:30;9.10;99.90
2907;DHT22;1463;51.070;16.998;2023-11-21T03:28:56;9.10;99.90
2907;DHT22;1463;51.070;16.998;2023-11-21T03:31:23;9.10;99.90
2907;DHT22;1463;51.070;16.998;2023-11-21T03:33:51;9.00;99.90
2907;DHT22;1463;51.070;16.998;2023-11-21T03:36:19;9.10;99.90
2907;DHT22;1463;51.070;16.998;2023-11-21T03:38:48;9.00;99.90
2907;DHT22;1463;51.070;16.998;2023-11-21T03:41:15;9.10;99.90
2907;DHT22;1463;51.070;16.998;2023-11-21T03:43:42;9.10;99.90
2907;DHT22;1463;51.070;16.998;2023-11-21T03:46:08;9.10;99.90
2907;DHT22;1463;51.070;16.998;2023-11-21T03:48:35;9.10;99.90
2907;DHT22;1463;51.070;16.998;2023-11-21T03:51:04;9.10;99.90
2907;DHT22;1463;51.070;16.998;2023-11-21T03:53:33;9.10;99.90
2907;DHT22;1463;51.070;16.998;2023-11-21T03:56:04;9.10;99.90
2907;DHT22;1463;51.070;16.998;2023-11-21T03:58:31;9.10;99.90
2907;DHT22;1463;51.070;16.998;2023-11-21T04:00:58;9.10;99.90
2907;DHT22;1463;51.070;16.998;2023-11-21T04:03:24;9.10;99.90
2907;DHT22;1463;51.070;16.998;2023-11-21T04:05:51;9.10;99.90
2907;DHT22;1463;51.070;16.998;2023-11-21T04:08:19;9.10;99.90
2907;DHT22;1463;51.070;16.998;2023-11-21T04:10:46;9.10;99.90
2907;DHT22;1463;51.070;16.998;2023-11-21T04:13:14;9.10;99.90
2907;DHT22;1463;51.070;16.998;2023-11-21T04:15:40;9.30;99.90
2907;DHT22;1463;51.070;16.998;2023-11-21T04:18:07;9.10;99.90
2907;DHT22;1463;51.070;16.998;2023-11-21T04:20:34;9.10;99.90
2907;DHT22;1463;51.070;16.998;2023-11-21T04:23:01;9.10;99.90
2907;DHT22;1463;51.070;16.998;2023-11-21T04:25:30;9.10;99.90
2907;DHT22;1463;51.070;16.998;2023-11-21T04:27:57;9.00;99.90
2907;DHT22;1463;51.070;16.998;2023-11-21T04:30:23;9.10;99.90
2907;DHT22;1463;51.070;16.998;2023-11-21T04:32:50;9.10;99.90
2907;DHT22;1463;51.070;16.998;2023-11-21T04:35:19;9.10;99.90
2907;DHT22;1463;51.070;16.998;2023-11-21T04:37:46;9.10;99.90
2907;DHT22;1463;51.070;16.998;2023-11-21T04:40:13;9.10;99.90
2907;DHT22;1463;51.070;16.998;2023-11-21T04:42:41;9.10;99.90
2907;DHT22;1463;51.070;16.998;2023-11-21T04:45:09;9.00;99.90
2907;DHT22;1463;51.070;16.998;2023-11-21T04:47:37;9.10;99.90
2907;DHT22;1463;51.070;16.998;2023-11-21T04:50:04;9.10;99.90
2907;DHT22;1463;51.070;16.998;2023-11-21T04:52:32;9.10;99.90
2907;DHT22;1463;51.070;16.998;2023-11-21T04:55:00;9.10;99.90
2907;DHT22;1463;51.070;16.998;2023-11-21T04:57:28;9.00;99.90
2907;DHT22;1463;51.070;16.998;2023-11-21T04:59:56;9.00;99.90
2907;DHT22;1463;51.070;16.998;2023-11-21T05:02:23;9.00;99.90
2907;DHT22;1463;51.070;16.998;2023-11-21T05:04:50;9.00;99.90
2907;DHT22;1463;51.070;16.998;2023-11-21T05:07:16;9.00;99.90
2907;DHT22;1463;51.070;16.998;2023-11-21T05:09:43;9.00;99.90
2907;DHT22;1463;51.070;16.998;2023-11-21T05:12:11;9.10;99.90
2907;DHT22;1463;51.070;16.998;2023-11-21T05:14:38;9.00;99.90
2907;DHT22;1463;51.070;16.998;2023-11-21T05:17:06;9.00;99.90
2907;DHT22;1463;51.070;16.998;2023-11-21T05:19:34;9.10;99.90
2907;DHT22;1463;51.070;16.998;2023-11-21T05:22:01;9.10;99.90
2907;DHT22;1463;51.070;16.998;2023-11-21T05:24:28;9.10;99.90
2907;DHT22;1463;51.070;16.998;2023-11-21T05:26:55;9.00;99.90
2907;DHT22;1463;51.070;16.998;2023-11-21T05:29:23;9.10;99.90
2907;DHT22;1463;51.070;16.998;2023-11-21T05:31:51;9.00;99.90
2907;DHT22;1463;51.070;16.998;2023-11-21T05:34:20;9.00;99.90
2907;DHT22;1463;51.070;16.998;2023-11-21T05:36:49;9.00;99.90
2907;DHT22;1463;51.070;16.998;2023-11-21T05:39:16;9.00;99.90
2907;DHT22;1463;51.070;16.998;2023-11-21T05:41:43;9.00;99.90
2907;DHT22;1463;51.070;16.998;2023-11-21T05:44:09;9.00;99.90
2907;DHT22;1463;51.070;16.998;2023-11-21T05:46:37;9.00;99.90
2907;DHT22;1463;51.070;16.998;2023-11-21T05:49:04;9.00;99.90
2907;DHT22;1463;51.070;16.998;2023-11-21T05:51:32;9.00;99.90
2907;DHT22;1463;51.070;16.998;2023-11-21T05:53:59;9.10;99.90
2907;DHT22;1463;51.070;16.998;2023-11-21T05:56:26;9.00;99.90
2907;DHT22;1463;51.070;16.998;2023-11-21T05:58:52;9.00;99.90
2907;DHT22;1463;51.070;16.998;2023-11-21T06:01:19;9.00;99.90
2907;DHT22;1463;51.070;16.998;2023-11-21T06:03:49;9.00;99.90
2907;DHT22;1463;51.070;16.998;2023-11-21T06:06:16;8.90;99.90
2907;DHT22;1463;51.070;16.998;2023-11-21T06:08:46;9.00;99.90
2907;DHT22;1463;51.070;16.998;2023-11-21T06:11:13;8.90;99.90
2907;DHT22;1463;51.070;16.998;2023-11-21T06:13:39;8.90;99.90
2907;DHT22;1463;51.070;16.998;2023-11-21T06:16:07;9.00;99.90
2907;DHT22;1463;51.070;16.998;2023-11-21T06:18:35;8.90;99.90
2907;DHT22;1463;51.070;16.998;2023-11-21T06:21:02;8.90;99.90
2907;DHT22;1463;51.070;16.998;2023-11-21T06:23:29;8.90;99.90
2907;DHT22;1463;51.070;16.998;2023-11-21T06:25:57;8.80;99.90
2907;DHT22;1463;51.070;16.998;2023-11-21T06:28:24;8.80;99.90
2907;DHT22;1463;51.070;16.998;2023-11-21T06:30:52;8.90;99.90
2907;DHT22;1463;51.070;16.998;2023-11-21T06:33:20;8.90;99.90
2907;DHT22;1463;51.070;16.998;2023-11-21T06:35:47;8.90;99.90
2907;DHT22;1463;51.070;16.998;2023-11-21T06:38:14;8.90;99.90
2907;DHT22;1463;51.070;16.998;2023-11-21T06:40:40;8.80;99.90
2907;DHT22;1463;51.070;16.998;2023-11-21T06:43:08;8.80;99.90
2907;DHT22;1463;51.070;16.998;2023-11-21T06:45:35;8.80;99.90
2907;DHT22;1463;51.070;16.998;2023-11-21T06:48:02;8.80;99.90
2907;DHT22;1463;51.070;16.998;2023-11-21T06:50:29;8.80;99.90
2907;DHT22;1463;51.070;16.998;2023-11-21T06:52:56;8.80;99.90
2907;DHT22;1463;51.070;16.998;2023-11-21T06:55:23;8.80;99.90
2907;DHT22;1463;51.070;16.998;2023-11-21T06:57:50;8.70;99.90
2907;DHT22;1463;51.070;16.998;2023-11-21T07:00:21;8.80;99.90
2907;DHT22;1463;51.070;16.998;2023-11-21T07:02:48;8.80;99.90
2907;DHT22;1463;51.070;16.998;2023-11-21T07:05:15;8.80;99.90
2907;DHT22;1463;51.070;16.998;2023-11-21T07:07:46;8.80;99.90
2907;DHT22;1463;51.070;16.998;2023-11-21T07:10:13;8.80;99.90
2907;DHT22;1463;51.070;16.998;2023-11-21T07:12:40;8.80;99.90
2907;DHT22;1463;51.070;16.998;2023-11-21T07:15:10;8.80;99.90
2907;DHT22;1463;51.070;16.998;2023-11-21T07:17:40;8.80;99.90
2907;DHT22;1463;51.070;16.998;2023-11-21T07:20:08;8.80;99.90
2907;DHT22;1463;51.070;16.998;2023-11-21T07:22:38;8.80;99.90
2907;DHT22;1463;51.070;16.998;2023-11-21T07:25:06;8.80;99.90
2907;DHT22;1463;51.070;16.998;2023-11-21T07:27:34;8.80;99.90
2907;DHT22;1463;51.070;16.998;2023-11-21T07:30:03;8.80;99.90
2907;DHT22;1463;51.070;16.998;2023-11-21T07:32:31;8.80;99.90
2907;DHT22;1463;51.070;16.998;2023-11-21T07:34:59;8.70;99.90
2907;DHT22;1463;51.070;16.998;2023-11-21T07:37:27;8.80;99.90
2907;DHT22;1463;51.070;16.998;2023-11-21T07:39:54;8.70;99.90
2907;DHT22;1463;51.070;16.998;2023-11-21T07:42:22;8.80;99.90
2907;DHT22;1463;51.070;16.998;2023-11-21T07:44:49;8.80;99.90
2907;DHT22;1463;51.070;16.998;2023-11-21T07:47:17;8.90;99.90
2907;DHT22;1463;51.070;16.998;2023-11-21T07:49:46;8.90;99.90
2907;DHT22;1463;51.070;16.998;2023-11-21T07:52:14;8.90;99.90
2907;DHT22;1463;51.070;16.998;2023-11-21T07:54:41;8.90;99.90
2907;DHT22;1463;51.070;16.998;2023-11-21T07:57:08;8.90;99.90
2907;DHT22;1463;51.070;16.998;2023-11-21T07:59:38;8.90;99.90
2907;DHT22;1463;51.070;16.998;2023-11-21T08:02:06;8.90;99.90
2907;DHT22;1463;51.070;16.998;2023-11-21T08:04:33;8.90;99.90
2907;DHT22;1463;51.070;16.998;2023-11-21T08:07:00;9.00;99.90
2907;DHT22;1463;51.070;16.998;2023-11-21T08:09:30;8.80;99.90
2907;DHT22;1463;51.070;16.998;2023-11-21T08:11:58;8.90;99.90
2907;DHT22;1463;51.070;16.998;2023-11-21T08:14:26;9.00;99.90
2907;DHT22;1463;51.070;16.998;2023-11-21T08:16:53;9.00;99.90
2907;DHT22;1463;51.070;16.998;2023-11-21T08:19:23;9.00;99.90
2907;DHT22;1463;51.070;16.998;2023-11-21T08:21:50;9.00;99.90
2907;DHT22;1463;51.070;16.998;2023-11-21T08:24:20;9.00;99.90
2907;DHT22;1463;51.070;16.998;2023-11-21T08:26:48;9.00;99.90
2907;DHT22;1463;51.070;16.998;2023-11-21T08:29:15;9.10;99.90
2907;DHT22;1463;51.070;16.998;2023-11-21T08:31:42;9.10;99.90
2907;DHT22;1463;51.070;16.998;2023-11-21T08:34:10;9.10;99.90
2907;DHT22;1463;51.070;16.998;2023-11-21T08:36:41;9.20;99.90
2907;DHT22;1463;51.070;16.998;2023-11-21T08:39:08;9.10;99.90
2907;DHT22;1463;51.070;16.998;2023-11-21T08:41:35;9.20;99.90
2907;DHT22;1463;51.070;16.998;2023-11-21T08:44:04;9.20;99.90
2907;DHT22;1463;51.070;16.998;2023-11-21T08:46:32;9.20;99.90
2907;DHT22;1463;51.070;16.998;2023-11-21T08:49:00;9.20;99.90
2907;DHT22;1463;51.070;16.998;2023-11-21T08:51:27;9.20;99.90
2907;DHT22;1463;51.070;16.998;2023-11-21T08:53:54;9.20;99.90
2907;DHT22;1463;51.070;16.998;2023-11-21T08:56:24;9.30;99.90
2907;DHT22;1463;51.070;16.998;2023-11-21T08:58:51;9.20;99.90
2907;DHT22;1463;51.070;16.998;2023-11-21T09:01:19;9.30;99.90
2907;DHT22;1463;51.070;16.998;2023-11-21T09:03:48;9.30;99.90
2907;DHT22;1463;51.070;16.998;2023-11-21T09:06:15;9.30;99.90
2907;DHT22;1463;51.070;16.998;2023-11-21T09:08:42;9.30;99.90
2907;DHT22;1463;51.070;16.998;2023-11-21T09:11:09;9.40;99.90
2907;DHT22;1463;51.070;16.998;2023-11-21T09:13:39;9.40;99.90
2907;DHT22;1463;51.070;16.998;2023-11-21T09:16:06;9.30;99.90
2907;DHT22;1463;51.070;16.998;2023-11-21T09:18:34;9.30;99.90
2907;DHT22;1463;51.070;16.998;2023-11-21T09:21:01;9.30;99.90
2907;DHT22;1463;51.070;16.998;2023-11-21T09:23:30;9.30;99.90
2907;DHT22;1463;51.070;16.998;2023-11-21T09:25:56;9.40;99.90
2907;DHT22;1463;51.070;16.998;2023-11-21T09:28:25;9.40;99.90
2907;DHT22;1463;51.070;16.998;2023-11-21T09:30:52;9.30;99.90
2907;DHT22;1463;51.070;16.998;2023-11-21T09:33:19;9.30;99.90
2907;DHT22;1463;51.070;16.998;2023-11-21T09:35:49;9.30;99.90
2907;DHT22;1463;51.070;16.998;2023-11-21T09:38:16;9.40;99.90
2907;DHT22;1463;51.070;16.998;2023-11-21T09:40:45;9.40;99.90
2907;DHT22;1463;51.070;16.998;2023-11-21T09:43:16;9.40;99.90
2907;DHT22;1463;51.070;16.998;2023-11-21T09:45:46;9.40;99.90
2907;DHT22;1463;51.070;16.998;2023-11-21T09:48:14;9.40;99.90
2907;DHT22;1463;51.070;16.998;2023-11-21T09:50:42;9.50;99.90
2907;DHT22;1463;51.070;16.998;2023-11-21T09:53:15;9.50;99.90
2907;DHT22;1463;51.070;16.998;2023-11-21T09:55:45;9.50;99.90
2907;DHT22;1463;51.070;16.998;2023-11-21T09:58:13;9.50;99.90
2907;DHT22;1463;51.070;16.998;2023-11-21T10:00:41;9.50;99.90
2907;DHT22;1463;51.070;16.998;2023-11-21T10:03:08;9.50;99.90
2907;DHT22;1463;51.070;16.998;2023-11-21T10:05:35;9.50;99.90
2907;DHT22;1463;51.070;16.998;2023-11-21T10:08:06;9.50;99.90
2907;DHT22;1463;51.070;16.998;2023-11-21T10:10:35;9.50;99.90
2907;DHT22;1463;51.070;16.998;2023-11-21T10:13:03;9.50;99.90
2907;DHT22;1463;51.070;16.998;2023-11-21T10:15:33;9.50;99.90
2907;DHT22;1463;51.070;16.998;2023-11-21T10:18:02;9.50;99.90
2907;DHT22;1463;51.070;16.998;2023-11-21T10:20:30;9.50;99.90
2907;DHT22;1463;51.070;16.998;2023-11-21T10:22:59;9.50;99.90
2907;DHT22;1463;51.070;16.998;2023-11-21T10:25:27;9.50;99.90
2907;DHT22;1463;51.070;16.998;2023-11-21T10:27:57;9.50;99.90
2907;DHT22;1463;51.070;16.998;2023-11-21T10:30:28;9.40;99.90
2907;DHT22;1463;51.070;16.998;2023-11-21T10:32:59;9.40;99.90
2907;DHT22;1463;51.070;16.998;2023-11-21T10:35:39;9.50;99.90
2907;DHT22;1463;51.070;16.998;2023-11-21T10:38:06;9.40;99.90
2907;DHT22;1463;51.070;16.998;2023-11-21T10:40:38;9.40;99.90
2907;DHT22;1463;51.070;16.998;2023-11-21T10:43:08;9.50;99.90
2907;DHT22;1463;51.070;16.998;2023-11-21T10:45:36;9.40;99.90
2907;DHT22;1463;51.070;16.998;2023-11-21T10:48:05;9.40;99.90
2907;DHT22;1463;51.070;16.998;2023-11-21T10:50:37;9.40;99.90
2907;DHT22;1463;51.070;16.998;2023-11-21T10:53:04;9.40;99.90
2907;DHT22;1463;51.070;16.998;2023-11-21T10:55:32;9.50;99.90
2907;DHT22;1463;51.070;16.998;2023-11-21T10:58:02;9.50;99.90
2907;DHT22;1463;51.070;16.998;2023-11-21T11:00:33;9.50;99.90
2907;DHT22;1463;51.070;16.998;2023-11-21T11:03:00;9.50;99.90
2907;DHT22;1463;51.070;16.998;2023-11-21T11:05:28;9.40;99.90
2907;DHT22;1463;51.070;16.998;2023-11-21T11:08:00;9.50;99.90
2907;DHT22;1463;51.070;16.998;2023-11-21T11:10:30;9.60;99.90
2907;DHT22;1463;51.070;16.998;2023-11-21T11:12:57;9.60;99.90
2907;DHT22;1463;51.070;16.998;2023-11-21T11:15:27;9.60;99.90
2907;DHT22;1463;51.070;16.998;2023-11-21T11:17:55;9.60;99.90
2907;DHT22;1463;51.070;16.998;2023-11-21T11:20:24;9.60;99.90
2907;DHT22;1463;51.070;16.998;2023-11-21T11:23:04;9.60;99.90
2907;DHT22;1463;51.070;16.998;2023-11-21T11:25:54;9.60;99.90
2907;DHT22;1463;51.070;16.998;2023-11-21T11:28:34;9.60;99.90
2907;DHT22;1463;51.070;16.998;2023-11-21T11:31:14;9.70;99.90
2907;DHT22;1463;51.070;16.998;2023-11-21T11:33:53;9.70;99.90
2907;DHT22;1463;51.070;16.998;2023-11-21T11:36:26;9.60;99.90
2907;DHT22;1463;51.070;16.998;2023-11-21T11:38:54;9.70;99.90
2907;DHT22;1463;51.070;16.998;2023-11-21T11:41:27;9.60;99.90
2907;DHT22;1463;51.070;16.998;2023-11-21T11:44:00;9.60;99.90
2907;DHT22;1463;51.070;16.998;2023-11-21T11:46:43;9.70;99.90
2907;DHT22;1463;51.070;16.998;2023-11-21T11:49:23;9.60;99.90
2907;DHT22;1463;51.070;16.998;2023-11-21T11:54:50;9.50;99.90
2907;DHT22;1463;51.070;16.998;2023-11-21T11:57:19;9.60;99.90
2907;DHT22;1463;51.070;16.998;2023-11-21T12:00:09;9.50;99.90
2907;DHT22;1463;51.070;16.998;2023-11-21T12:02:37;9.50;99.90
2907;DHT22;1463;51.070;16.998;2023-11-21T12:05:10;9.50;99.90
2907;DHT22;1463;51.070;16.998;2023-11-21T12:07:56;9.40;99.90
2907;DHT22;1463;51.070;16.998;2023-11-21T12:10:25;9.40;99.90
2907;DHT22;1463;51.070;16.998;2023-11-21T12:12:54;9.40;99.90
2907;DHT22;1463;51.070;16.998;2023-11-21T12:15:21;9.30;99.90
2907;DHT22;1463;51.070;16.998;2023-11-21T12:17:49;9.30;99.90
2907;DHT22;1463;51.070;16.998;2023-11-21T12:20:19;9.30;99.90
2907;DHT22;1463;51.070;16.998;2023-11-21T12:22:47;9.20;99.90
2907;DHT22;1463;51.070;16.998;2023-11-21T12:25:15;9.20;99.90
2907;DHT22;1463;51.070;16.998;2023-11-21T12:27:46;9.20;99.90
2907;DHT22;1463;51.070;16.998;2023-11-21T12:30:15;9.20;99.90
2907;DHT22;1463;51.070;16.998;2023-11-21T12:32:43;9.20;99.90
2907;DHT22;1463;51.070;16.998;2023-11-21T12:35:12;9.00;99.90
2907;DHT22;1463;51.070;16.998;2023-11-21T12:37:41;9.10;99.90
2907;DHT22;1463;51.070;16.998;2023-11-21T12:40:10;9.00;99.90
2907;DHT22;1463;51.070;16.998;2023-11-21T12:42:39;8.90;99.90
2907;DHT22;1463;51.070;16.998;2023-11-21T12:45:18;8.90;99.90
2907;DHT22;1463;51.070;16.998;2023-11-21T12:47:46;8.90;99.90
2907;DHT22;1463;51.070;16.998;2023-11-21T12:50:14;8.90;99.90
2907;DHT22;1463;51.070;16.998;2023-11-21T12:52:44;8.80;99.90
2907;DHT22;1463;51.070;16.998;2023-11-21T12:55:14;8.80;99.90
2907;DHT22;1463;51.070;16.998;2023-11-21T12:57:48;8.90;99.90
2907;DHT22;1463;51.070;16.998;2023-11-21T13:00:18;8.70;99.90
2907;DHT22;1463;51.070;16.998;2023-11-21T13:02:53;8.80;99.90
2907;DHT22;1463;51.070;16.998;2023-11-21T13:05:29;8.70;99.90
2907;DHT22;1463;51.070;16.998;2023-11-21T13:07:58;8.50;99.90
2907;DHT22;1463;51.070;16.998;2023-11-21T13:10:30;8.60;99.90
2907;DHT22;1463;51.070;16.998;2023-11-21T13:12:58;8.50;99.90
2907;DHT22;1463;51.070;16.998;2023-11-21T13:15:26;8.40;99.90
2907;DHT22;1463;51.070;16.998;2023-11-21T13:17:53;8.30;99.90
2907;DHT22;1463;51.070;16.998;2023-11-21T13:20:21;8.30;99.90
2907;DHT22;1463;51.070;16.998;2023-11-21T13:22:50;8.40;99.90
2907;DHT22;1463;51.070;16.998;2023-11-21T13:25:21;8.40;99.90
2907;DHT22;1463;51.070;16.998;2023-11-21T13:27:51;8.30;99.90
2907;DHT22;1463;51.070;16.998;2023-11-21T13:30:18;8.30;99.90
2907;DHT22;1463;51.070;16.998;2023-11-21T13:32:49;8.30;99.90
2907;DHT22;1463;51.070;16.998;2023-11-21T13:35:17;8.20;99.90
2907;DHT22;1463;51.070;16.998;2023-11-21T13:37:48;8.20;99.90
2907;DHT22;1463;51.070;16.998;2023-11-21T13:40:22;8.20;99.90
2907;DHT22;1463;51.070;16.998;2023-11-21T13:42:53;8.10;99.90
2907;DHT22;1463;51.070;16.998;2023-11-21T13:45:21;8.10;99.90
2907;DHT22;1463;51.070;16.998;2023-11-21T13:47:50;8.10;99.90
2907;DHT22;1463;51.070;16.998;2023-11-21T13:50:23;8.00;99.90
2907;DHT22;1463;51.070;16.998;2023-11-21T13:52:54;8.00;99.90
2907;DHT22;1463;51.070;16.998;2023-11-21T13:55:24;8.00;99.90
2907;DHT22;1463;51.070;16.998;2023-11-21T13:57:51;7.90;99.90
2907;DHT22;1463;51.070;16.998;2023-11-21T14:00:18;8.00;99.90
2907;DHT22;1463;51.070;16.998;2023-11-21T14:03:02;8.00;99.90
2907;DHT22;1463;51.070;16.998;2023-11-21T14:05:34;8.00;99.90
2907;DHT22;1463;51.070;16.998;2023-11-21T14:08:00;7.90;99.90
2907;DHT22;1463;51.070;16.998;2023-11-21T14:10:34;8.00;99.90
2907;DHT22;1463;51.070;16.998;2023-11-21T14:13:08;7.80;99.90
2907;DHT22;1463;51.070;16.998;2023-11-21T14:15:36;7.80;99.90
2907;DHT22;1463;51.070;16.998;2023-11-21T14:18:07;7.70;99.90
2907;DHT22;1463;51.070;16.998;2023-11-21T14:20:36;7.60;99.90
2907;DHT22;1463;51.070;16.998;2023-11-21T14:23:03;7.70;99.90
2907;DHT22;1463;51.070;16.998;2023-11-21T14:25:39;7.70;99.90
2907;DHT22;1463;51.070;16.998;2023-11-21T14:28:07;7.70;99.90
2907;DHT22;1463;51.070;16.998;2023-11-21T14:30:37;7.60;99.90
2907;DHT22;1463;51.070;16.998;2023-11-21T14:33:05;7.60;99.90
2907;DHT22;1463;51.070;16.998;2023-11-21T14:35:34;7.50;99.90
2907;DHT22;1463;51.070;16.998;2023-11-21T14:38:01;7.40;99.90
2907;DHT22;1463;51.070;16.998;2023-11-21T14:40:30;7.40;99.90
2907;DHT22;1463;51.070;16.998;2023-11-21T14:43:00;7.50;99.90
2907;DHT22;1463;51.070;16.998;2023-11-21T14:45:27;7.40;99.90
2907;DHT22;1463;51.070;16.998;2023-11-21T14:47:55;7.30;99.90
2907;DHT22;1463;51.070;16.998;2023-11-21T14:50:32;7.30;99.90
2907;DHT22;1463;51.070;16.998;2023-11-21T14:53:13;7.30;99.90
2907;DHT22;1463;51.070;16.998;2023-11-21T14:55:40;7.20;99.90
2907;DHT22;1463;51.070;16.998;2023-11-21T14:58:21;7.10;99.90
2907;DHT22;1463;51.070;16.998;2023-11-21T15:00:54;7.20;99.90
2907;DHT22;1463;51.070;16.998;2023-11-21T15:03:24;7.10;99.90
2907;DHT22;1463;51.070;16.998;2023-11-21T15:06:09;7.20;99.90
2907;DHT22;1463;51.070;16.998;2023-11-21T15:08:48;7.10;99.90
2907;DHT22;1463;51.070;16.998;2023-11-21T15:11:20;7.10;99.90
2907;DHT22;1463;51.070;16.998;2023-11-21T15:13:52;7.00;99.90
2907;DHT22;1463;51.070;16.998;2023-11-21T15:16:19;6.90;99.90
2907;DHT22;1463;51.070;16.998;2023-11-21T15:18:46;6.90;99.90
2907;DHT22;1463;51.070;16.998;2023-11-21T15:21:13;6.90;99.90
2907;DHT22;1463;51.070;16.998;2023-11-21T15:23:39;6.90;99.90
2907;DHT22;1463;51.070;16.998;2023-11-21T15:26:07;6.90;99.90
2907;DHT22;1463;51.070;16.998;2023-11-21T15:28:35;6.90;99.90
2907;DHT22;1463;51.070;16.998;2023-11-21T15:31:03;6.90;99.90
2907;DHT22;1463;51.070;16.998;2023-11-21T15:33:30;6.90;99.90
2907;DHT22;1463;51.070;16.998;2023-11-21T15:36:04;6.80;99.90
2907;DHT22;1463;51.070;16.998;2023-11-21T15:38:35;6.80;99.90
2907;DHT22;1463;51.070;16.998;2023-11-21T15:41:02;6.60;99.90
2907;DHT22;1463;51.070;16.998;2023-11-21T15:43:30;6.70;99.90
2907;DHT22;1463;51.070;16.998;2023-11-21T15:45:57;6.80;99.90
2907;DHT22;1463;51.070;16.998;2023-11-21T15:48:30;6.80;99.90
2907;DHT22;1463;51.070;16.998;2023-11-21T15:50:57;6.80;99.90
2907;DHT22;1463;51.070;16.998;2023-11-21T15:53:24;6.80;99.90
2907;DHT22;1463;51.070;16.998;2023-11-21T15:55:51;6.70;99.90
2907;DHT22;1463;51.070;16.998;2023-11-21T15:58:18;6.70;99.90
2907;DHT22;1463;51.070;16.998;2023-11-21T16:00:45;6.70;99.90
2907;DHT22;1463;51.070;16.998;2023-11-21T16:03:12;6.40;99.90
2907;DHT22;1463;51.070;16.998;2023-11-21T16:05:41;6.50;99.90
2907;DHT22;1463;51.070;16.998;2023-11-21T16:08:10;6.50;99.90
2907;DHT22;1463;51.070;16.998;2023-11-21T16:10:39;6.50;99.90
2907;DHT22;1463;51.070;16.998;2023-11-21T16:13:06;6.50;99.90
2907;DHT22;1463;51.070;16.998;2023-11-21T16:15:33;6.50;99.90